Caucete, Argentina
Current Conditions -  °F | °C
As of 7:00 PM on Wednesday 22 Oct 2014 (Local Time) from SAME Reporting Station
Scattered Clouds Scattered Clouds  
Wind Chill: 88°   Ceiling: Unl
Heat Index: 88°   Visibility: 6mi
Dew Point: 54°   Wind: 2mph
Humidity: 31%   Direction: 180°S
Pressure: 29.88"   Gusts: NA
Location:  31.65°S, 68.28°W
Report Text: SAME 222200Z 18002KT 9999 FEW045TCU SCT050 31/12 Q1012
Loading
Personal Weather Stations






























Interactive Weather Map New forecast layout! Learn more

10-Day Weather Forecast

Advertisements
Track Severe Weather on mobile